sensor_id;sensor_type;location;lat;lon;timestamp;pressure;altitude;pressure_sealevel;temperature;humidity
13767;BME280;47980;48.794;9.176;2023-04-03T00:02:17;99007.22;;;4.83;72.99
13767;BME280;47980;48.794;9.176;2023-04-03T00:04:49;99006.16;;;4.99;71.53
13767;BME280;47980;48.794;9.176;2023-04-03T00:07:20;99004.53;;;5.24;70.17
13767;BME280;47980;48.794;9.176;2023-04-03T00:09:52;98997.91;;;5.37;69.87
13767;BME280;47980;48.794;9.176;2023-04-03T00:12:25;99006.66;;;5.12;71.30
13767;BME280;47980;48.794;9.176;2023-04-03T00:14:57;98999.06;;;4.90;72.66
13767;BME280;47980;48.794;9.176;2023-04-03T00:17:29;98998.53;;;4.82;73.67
13767;BME280;47980;48.794;9.176;2023-04-03T00:20:00;99000.63;;;5.01;72.71
13767;BME280;47980;48.794;9.176;2023-04-03T00:22:32;99003.47;;;5.35;71.39
13767;BME280;47980;48.794;9.176;2023-04-03T00:25:04;99008.75;;;5.25;71.14
13767;BME280;47980;48.794;9.176;2023-04-03T00:27:38;99010.88;;;5.13;71.00
13767;BME280;47980;48.794;9.176;2023-04-03T00:30:13;99009.28;;;5.06;71.79
13767;BME280;47980;48.794;9.176;2023-04-03T00:32:46;99001.16;;;4.93;72.42
13767;BME280;47980;48.794;9.176;2023-04-03T00:35:19;99004.31;;;5.00;70.85
13767;BME280;47980;48.794;9.176;2023-04-03T00:37:52;99005.66;;;4.87;71.57
13767;BME280;47980;48.794;9.176;2023-04-03T00:40:25;98999.88;;;4.90;71.95
13767;BME280;47980;48.794;9.176;2023-04-03T00:42:59;99006.16;;;4.89;72.55
13767;BME280;47980;48.794;9.176;2023-04-03T00:45:33;99011.13;;;5.21;71.49
13767;BME280;47980;48.794;9.176;2023-04-03T00:48:07;99003.81;;;4.88;73.06
13767;BME280;47980;48.794;9.176;2023-04-03T00:50:41;99001.97;;;4.73;74.45
13767;BME280;47980;48.794;9.176;2023-04-03T00:53:17;99013.53;;;4.87;72.97
13767;BME280;47980;48.794;9.176;2023-04-03T00:55:49;98993.53;;;4.96;73.46
13767;BME280;47980;48.794;9.176;2023-04-03T00:58:28;98990.66;;;4.88;72.33
13767;BME280;47980;48.794;9.176;2023-04-03T01:01:07;98996.69;;;4.98;71.56
13767;BME280;47980;48.794;9.176;2023-04-03T01:03:39;98995.34;;;5.11;71.51
13767;BME280;47980;48.794;9.176;2023-04-03T01:06:11;99000.09;;;4.99;71.58
13767;BME280;47980;48.794;9.176;2023-04-03T01:08:44;98999.84;;;4.95;72.25
13767;BME280;47980;48.794;9.176;2023-04-03T01:11:17;99005.38;;;4.89;72.76
13767;BME280;47980;48.794;9.176;2023-04-03T01:13:50;98999.34;;;4.83;73.43
13767;BME280;47980;48.794;9.176;2023-04-03T01:16:21;98993.03;;;4.94;73.04
13767;BME280;47980;48.794;9.176;2023-04-03T01:18:53;98995.16;;;4.62;73.98
13767;BME280;47980;48.794;9.176;2023-04-03T01:21:58;98988.78;;;4.93;72.49
13767;BME280;47980;48.794;9.176;2023-04-03T01:24:36;98996.13;;;5.12;71.09
13767;BME280;47980;48.794;9.176;2023-04-03T01:27:10;98996.97;;;4.87;72.13
13767;BME280;47980;48.794;9.176;2023-04-03T01:29:43;98998.78;;;4.96;71.72
13767;BME280;47980;48.794;9.176;2023-04-03T01:32:16;99001.97;;;4.78;72.68
13767;BME280;47980;48.794;9.176;2023-04-03T01:34:48;99005.38;;;4.83;74.08
13767;BME280;47980;48.794;9.176;2023-04-03T01:37:20;99007.75;;;4.75;72.83
13767;BME280;47980;48.794;9.176;2023-04-03T01:39:51;99002.72;;;5.04;71.77
13767;BME280;47980;48.794;9.176;2023-04-03T01:42:23;99006.94;;;5.05;71.50
13767;BME280;47980;48.794;9.176;2023-04-03T01:44:54;99006.19;;;4.69;73.07
13767;BME280;47980;48.794;9.176;2023-04-03T01:47:28;99008.00;;;4.53;74.79
13767;BME280;47980;48.794;9.176;2023-04-03T01:49:59;98997.22;;;4.85;72.62
13767;BME280;47980;48.794;9.176;2023-04-03T01:52:31;98996.16;;;4.96;71.81
13767;BME280;47980;48.794;9.176;2023-04-03T01:55:03;99001.69;;;4.85;72.02
13767;BME280;47980;48.794;9.176;2023-04-03T01:57:35;98999.34;;;4.88;73.40
13767;BME280;47980;48.794;9.176;2023-04-03T02:00:07;98994.34;;;4.87;71.83
13767;BME280;47980;48.794;9.176;2023-04-03T02:02:40;98998.53;;;4.88;73.63
13767;BME280;47980;48.794;9.176;2023-04-03T02:05:12;99004.31;;;4.74;74.45
13767;BME280;47980;48.794;9.176;2023-04-03T02:07:44;99009.59;;;4.79;73.27
13767;BME280;47980;48.794;9.176;2023-04-03T02:10:16;99008.00;;;4.63;74.18
13767;BME280;47980;48.794;9.176;2023-04-03T02:12:47;99004.06;;;4.81;73.05
13767;BME280;47980;48.794;9.176;2023-04-03T02:15:19;99011.97;;;4.66;73.16
13767;BME280;47980;48.794;9.176;2023-04-03T02:17:52;99009.03;;;4.93;73.11
13767;BME280;47980;48.794;9.176;2023-04-03T02:20:24;99004.56;;;5.14;71.66
13767;BME280;47980;48.794;9.176;2023-04-03T02:22:56;98996.94;;;5.02;70.13
13767;BME280;47980;48.794;9.176;2023-04-03T02:25:28;99005.09;;;4.85;70.56
13767;BME280;47980;48.794;9.176;2023-04-03T02:28:00;99001.97;;;4.63;70.72
13767;BME280;47980;48.794;9.176;2023-04-03T02:30:31;99007.22;;;4.78;72.12
13767;BME280;47980;48.794;9.176;2023-04-03T02:33:04;99010.38;;;4.85;70.49
13767;BME280;47980;48.794;9.176;2023-04-03T02:35:36;99008.28;;;4.77;70.20
13767;BME280;47980;48.794;9.176;2023-04-03T02:38:08;99010.88;;;5.13;69.56
13767;BME280;47980;48.794;9.176;2023-04-03T02:40:39;99013.00;;;4.90;69.70
13767;BME280;47980;48.794;9.176;2023-04-03T02:43:11;99003.03;;;4.87;70.36
13767;BME280;47980;48.794;9.176;2023-04-03T02:45:42;99008.25;;;5.02;70.02
13767;BME280;47980;48.794;9.176;2023-04-03T02:48:15;98999.34;;;4.88;70.71
13767;BME280;47980;48.794;9.176;2023-04-03T02:50:47;99014.84;;;4.85;71.67
13767;BME280;47980;48.794;9.176;2023-04-03T02:53:19;99021.91;;;4.53;72.59
13767;BME280;47980;48.794;9.176;2023-04-03T02:55:50;99011.66;;;4.82;71.47
13767;BME280;47980;48.794;9.176;2023-04-03T02:58:22;99019.81;;;4.71;71.13
13767;BME280;47980;48.794;9.176;2023-04-03T03:00:54;99000.88;;;5.15;67.63
13767;BME280;47980;48.794;9.176;2023-04-03T03:03:27;99010.09;;;4.81;70.32
13767;BME280;47980;48.794;9.176;2023-04-03T03:06:02;99015.88;;;4.89;68.96
13767;BME280;47980;48.794;9.176;2023-04-03T03:08:35;99017.47;;;4.85;69.62
13767;BME280;47980;48.794;9.176;2023-04-03T03:11:07;99013.25;;;4.89;69.70
13767;BME280;47980;48.794;9.176;2023-04-03T03:13:38;99005.38;;;4.58;71.90
13767;BME280;47980;48.794;9.176;2023-04-03T03:16:10;99003.25;;;4.86;71.59
13767;BME280;47980;48.794;9.176;2023-04-03T03:18:43;99002.22;;;4.92;69.49
13767;BME280;47980;48.794;9.176;2023-04-03T03:21:15;98997.75;;;5.02;69.01
13767;BME280;47980;48.794;9.176;2023-04-03T03:23:47;99000.38;;;4.87;69.77
13767;BME280;47980;48.794;9.176;2023-04-03T03:26:18;98996.16;;;4.96;69.05
13767;BME280;47980;48.794;9.176;2023-04-03T03:28:50;98999.28;;;5.24;69.53
13767;BME280;47980;48.794;9.176;2023-04-03T03:31:22;99001.66;;;5.10;67.94
13767;BME280;47980;48.794;9.176;2023-04-03T03:33:55;99000.88;;;5.04;69.29
13767;BME280;47980;48.794;9.176;2023-04-03T03:36:26;98992.25;;;4.83;68.39
13767;BME280;47980;48.794;9.176;2023-04-03T03:38:58;99001.97;;;4.78;68.55
13767;BME280;47980;48.794;9.176;2023-04-03T03:41:29;98995.94;;;4.72;68.88
13767;BME280;47980;48.794;9.176;2023-04-03T03:44:01;99001.44;;;4.91;68.19
13767;BME280;47980;48.794;9.176;2023-04-03T03:46:32;98996.97;;;4.92;67.92
13767;BME280;47980;48.794;9.176;2023-04-03T03:49:05;98985.41;;;4.57;68.86
13767;BME280;47980;48.794;9.176;2023-04-03T03:51:37;98985.41;;;4.57;68.92
13767;BME280;47980;48.794;9.176;2023-04-03T03:54:09;99001.19;;;4.72;70.03
13767;BME280;47980;48.794;9.176;2023-04-03T03:56:41;98999.59;;;4.41;68.98
13767;BME280;47980;48.794;9.176;2023-04-03T03:59:12;98991.69;;;4.35;70.74
13767;BME280;47980;48.794;9.176;2023-04-03T04:01:44;98996.19;;;4.61;69.89
13767;BME280;47980;48.794;9.176;2023-04-03T04:04:17;98999.31;;;4.68;68.84
13767;BME280;47980;48.794;9.176;2023-04-03T04:06:49;99000.13;;;4.58;69.89
13767;BME280;47980;48.794;9.176;2023-04-03T04:09:20;99004.34;;;4.59;68.39
13767;BME280;47980;48.794;9.176;2023-04-03T04:11:52;99012.22;;;4.69;68.26
13767;BME280;47980;48.794;9.176;2023-04-03T04:14:24;99019.06;;;4.80;66.94
13767;BME280;47980;48.794;9.176;2023-04-03T04:16:55;99007.22;;;4.88;67.43
13767;BME280;47980;48.794;9.176;2023-04-03T04:19:28;99006.19;;;4.69;66.78
13767;BME280;47980;48.794;9.176;2023-04-03T04:22:00;99013.78;;;4.80;67.39
13767;BME280;47980;48.794;9.176;2023-04-03T04:24:32;99011.69;;;4.72;68.06
13767;BME280;47980;48.794;9.176;2023-04-03T04:27:03;99010.88;;;4.82;66.51
13767;BME280;47980;48.794;9.176;2023-04-03T04:29:35;99012.22;;;4.69;67.14
13767;BME280;47980;48.794;9.176;2023-04-03T04:32:07;99014.56;;;4.71;68.02
13767;BME280;47980;48.794;9.176;2023-04-03T04:34:40;99003.00;;;4.72;67.11
13767;BME280;47980;48.794;9.176;2023-04-03T04:37:12;99007.72;;;4.65;67.09
13767;BME280;47980;48.794;9.176;2023-04-03T04:39:43;99009.56;;;4.64;66.78
13767;BME280;47980;48.794;9.176;2023-04-03T04:42:15;99011.41;;;4.89;64.92
13767;BME280;47980;48.794;9.176;2023-04-03T04:44:47;99013.00;;;4.70;65.20
13767;BME280;47980;48.794;9.176;2023-04-03T04:47:18;99003.00;;;4.72;65.60
13767;BME280;47980;48.794;9.176;2023-04-03T04:49:51;99009.59;;;4.74;65.84
13767;BME280;47980;48.794;9.176;2023-04-03T04:52:23;99004.84;;;4.71;65.22
13767;BME280;47980;48.794;9.176;2023-04-03T04:54:55;99005.38;;;4.68;65.04
13767;BME280;47980;48.794;9.176;2023-04-03T04:57:26;99010.38;;;4.90;63.20
13767;BME280;47980;48.794;9.176;2023-04-03T04:59:58;99016.16;;;4.82;63.54
13767;BME280;47980;48.794;9.176;2023-04-03T05:02:30;99005.91;;;4.91;63.93
13767;BME280;47980;48.794;9.176;2023-04-03T05:05:03;99021.94;;;4.89;63.67
13767;BME280;47980;48.794;9.176;2023-04-03T05:07:35;99022.72;;;5.00;62.81
13767;BME280;47980;48.794;9.176;2023-04-03T05:10:08;99029.56;;;4.91;63.56
13767;BME280;47980;48.794;9.176;2023-04-03T05:12:40;99034.53;;;4.92;63.42
13767;BME280;47980;48.794;9.176;2023-04-03T05:15:12;99028.25;;;4.88;62.74
13767;BME280;47980;48.794;9.176;2023-04-03T05:17:43;99026.94;;;4.80;63.38
13767;BME280;47980;48.794;9.176;2023-04-03T05:20:16;99039.81;;;4.87;63.00
13767;BME280;47980;48.794;9.176;2023-04-03T05:22:48;99035.59;;;4.91;62.85
13767;BME280;47980;48.794;9.176;2023-04-03T05:25:20;99041.94;;;4.90;63.19
13767;BME280;47980;48.794;9.176;2023-04-03T05:27:51;99030.88;;;4.88;64.29
13767;BME280;47980;48.794;9.176;2023-04-03T05:30:23;99036.91;;;4.63;64.99
13767;BME280;47980;48.794;9.176;2023-04-03T05:32:55;99037.97;;;4.93;64.42
13767;BME280;47980;48.794;9.176;2023-04-03T05:35:28;99042.69;;;4.96;64.71
13767;BME280;47980;48.794;9.176;2023-04-03T05:38:00;99041.91;;;5.00;63.75
13767;BME280;47980;48.794;9.176;2023-04-03T05:40:32;99041.13;;;5.05;63.65
13767;BME280;47980;48.794;9.176;2023-04-03T05:43:03;99048.72;;;4.71;65.14
13767;BME280;47980;48.794;9.176;2023-04-03T05:45:42;99056.38;;;4.77;63.71
13767;BME280;47980;48.794;9.176;2023-04-03T05:48:17;99042.69;;;4.75;65.06
13767;BME280;47980;48.794;9.176;2023-04-03T05:50:50;99060.31;;;4.70;63.81
13767;BME280;47980;48.794;9.176;2023-04-03T05:53:25;99051.13;;;4.88;64.84
13767;BME280;47980;48.794;9.176;2023-04-03T05:55:58;99046.38;;;4.90;65.04
13767;BME280;47980;48.794;9.176;2023-04-03T05:58:30;99058.97;;;4.57;64.43
13767;BME280;47980;48.794;9.176;2023-04-03T06:01:08;99058.97;;;4.57;64.19
13767;BME280;47980;48.794;9.176;2023-04-03T06:03:40;99055.56;;;4.56;64.67
13767;BME280;47980;48.794;9.176;2023-04-03T06:08:45;99067.13;;;4.86;64.76
13767;BME280;47980;48.794;9.176;2023-04-03T06:11:17;99067.16;;;5.06;64.45
13767;BME280;47980;48.794;9.176;2023-04-03T06:13:48;99067.41;;;4.74;63.46
13767;BME280;47980;48.794;9.176;2023-04-03T06:16:20;99060.31;;;4.85;63.87
13767;BME280;47980;48.794;9.176;2023-04-03T06:18:51;99069.25;;;4.89;64.10
13767;BME280;47980;48.794;9.176;2023-04-03T06:21:23;99068.72;;;4.87;64.16
13767;BME280;47980;48.794;9.176;2023-04-03T06:23:56;99080.53;;;4.59;64.41
13767;BME280;47980;48.794;9.176;2023-04-03T06:26:28;99070.03;;;4.90;64.40
13767;BME280;47980;48.794;9.176;2023-04-03T06:29:00;99074.72;;;4.52;64.86
13767;BME280;47980;48.794;9.176;2023-04-03T06:31:32;99078.19;;;4.78;65.38
13767;BME280;47980;48.794;9.176;2023-04-03T06:34:04;99077.63;;;4.61;65.89
13767;BME280;47980;48.794;9.176;2023-04-03T06:36:36;99080.28;;;4.66;65.58
13767;BME280;47980;48.794;9.176;2023-04-03T06:39:12;99078.97;;;4.94;65.67
13767;BME280;47980;48.794;9.176;2023-04-03T06:41:44;99082.38;;;5.04;64.90
13767;BME280;47980;48.794;9.176;2023-04-03T06:44:16;99077.63;;;4.71;64.99
13767;BME280;47980;48.794;9.176;2023-04-03T06:46:48;99070.56;;;4.81;65.08
13767;BME280;47980;48.794;9.176;2023-04-03T06:49:19;99080.28;;;4.81;66.03
13767;BME280;47980;48.794;9.176;2023-04-03T06:51:51;99087.38;;;5.11;64.90
13767;BME280;47980;48.794;9.176;2023-04-03T06:54:24;99086.84;;;4.89;66.20
13767;BME280;47980;48.794;9.176;2023-04-03T06:56:56;99086.31;;;4.81;65.61
13767;BME280;47980;48.794;9.176;2023-04-03T06:59:28;99086.06;;;4.78;65.69
13767;BME280;47980;48.794;9.176;2023-04-03T07:01:59;99083.94;;;4.75;66.18
13767;BME280;47980;48.794;9.176;2023-04-03T07:04:31;99092.38;;;5.28;65.05
13767;BME280;47980;48.794;9.176;2023-04-03T07:07:03;99093.44;;;5.12;65.33
13767;BME280;47980;48.794;9.176;2023-04-03T07:09:35;99088.16;;;5.52;64.60
13767;BME280;47980;48.794;9.176;2023-04-03T07:12:07;99097.38;;;5.45;64.26
13767;BME280;47980;48.794;9.176;2023-04-03T07:14:39;99103.97;;;5.27;64.14
13767;BME280;47980;48.794;9.176;2023-04-03T07:17:11;99105.53;;;5.18;65.73
13767;BME280;47980;48.794;9.176;2023-04-03T07:19:43;99086.63;;;5.05;65.12
13767;BME280;47980;48.794;9.176;2023-04-03T07:22:14;99097.38;;;5.09;65.58
13767;BME280;47980;48.794;9.176;2023-04-03T07:24:47;99101.03;;;5.39;65.28
13767;BME280;47980;48.794;9.176;2023-04-03T07:27:19;99101.31;;;5.32;64.47
13767;BME280;47980;48.794;9.176;2023-04-03T07:29:51;99102.34;;;5.51;65.44
13767;BME280;47980;48.794;9.176;2023-04-03T07:32:22;99099.44;;;5.48;64.37
13767;BME280;47980;48.794;9.176;2023-04-03T07:34:55;99107.38;;;5.27;65.23
13767;BME280;47980;48.794;9.176;2023-04-03T07:37:26;99099.19;;;5.60;64.19
13767;BME280;47980;48.794;9.176;2023-04-03T07:40:01;99107.53;;;5.97;63.81
13767;BME280;47980;48.794;9.176;2023-04-03T07:42:34;99112.81;;;5.72;64.21
13767;BME280;47980;48.794;9.176;2023-04-03T07:45:07;99117.56;;;5.75;63.69
13767;BME280;47980;48.794;9.176;2023-04-03T07:47:39;99114.16;;;5.64;63.44
13767;BME280;47980;48.794;9.176;2023-04-03T07:50:11;99114.13;;;5.79;63.72
13767;BME280;47980;48.794;9.176;2023-04-03T07:52:42;99107.28;;;5.73;64.48
13767;BME280;47980;48.794;9.176;2023-04-03T07:55:16;99116.75;;;5.85;64.36
13767;BME280;47980;48.794;9.176;2023-04-03T07:57:47;99112.19;;;6.16;65.68
13767;BME280;47980;48.794;9.176;2023-04-03T08:00:20;99112.59;;;6.43;62.39
13767;BME280;47980;48.794;9.176;2023-04-03T08:02:51;99123.06;;;5.94;63.58
13767;BME280;47980;48.794;9.176;2023-04-03T08:05:23;99122.28;;;5.88;64.23
13767;BME280;47980;48.794;9.176;2023-04-03T08:07:55;99130.16;;;5.98;65.66
13767;BME280;47980;48.794;9.176;2023-04-03T08:10:29;99123.78;;;6.10;64.08
13767;BME280;47980;48.794;9.176;2023-04-03T08:13:01;99138.56;;;6.11;64.55
13767;BME280;47980;48.794;9.176;2023-04-03T08:15:33;99133.47;;;6.24;63.34
13767;BME280;47980;48.794;9.176;2023-04-03T08:18:05;99121.00;;;5.65;65.27
13767;BME280;47980;48.794;9.176;2023-04-03T08:20:37;99134.88;;;6.01;63.96
13767;BME280;47980;48.794;9.176;2023-04-03T08:23:10;99133.34;;;5.75;64.37
13767;BME280;47980;48.794;9.176;2023-04-03T08:25:43;99134.63;;;5.88;64.66
13767;BME280;47980;48.794;9.176;2023-04-03T08:28:14;99133.78;;;6.18;63.63
13767;BME280;47980;48.794;9.176;2023-04-03T08:30:46;99126.59;;;6.34;63.72
13767;BME280;47980;48.794;9.176;2023-04-03T08:33:18;99138.72;;;6.35;62.79
13767;BME280;47980;48.794;9.176;2023-04-03T08:35:49;99134.41;;;6.54;62.36
13767;BME280;47980;48.794;9.176;2023-04-03T08:38:21;99140.13;;;6.12;63.82
13767;BME280;47980;48.794;9.176;2023-04-03T08:41:02;99132.66;;;6.39;62.29
13767;BME280;47980;48.794;9.176;2023-04-03T08:43:43;99132.88;;;6.48;62.33
13767;BME280;47980;48.794;9.176;2023-04-03T08:46:22;99135.56;;;6.33;63.31
13767;BME280;47980;48.794;9.176;2023-04-03T08:48:57;99122.97;;;6.19;62.70
13767;BME280;47980;48.794;9.176;2023-04-03T08:51:29;99137.06;;;6.54;62.54
13767;BME280;47980;48.794;9.176;2023-04-03T08:54:06;99129.03;;;6.20;62.63
13767;BME280;47980;48.794;9.176;2023-04-03T08:56:47;99132.56;;;6.55;63.16
13767;BME280;47980;48.794;9.176;2023-04-03T08:59:25;99136.44;;;6.67;62.09
13767;BME280;47980;48.794;9.176;2023-04-03T09:01:59;99137.66;;;6.85;60.94
13767;BME280;47980;48.794;9.176;2023-04-03T09:04:36;99141.56;;;6.48;62.54
13767;BME280;47980;48.794;9.176;2023-04-03T09:07:13;99135.81;;;6.36;62.57
13767;BME280;47980;48.794;9.176;2023-04-03T09:09:49;99149.22;;;6.45;62.80
13767;BME280;47980;48.794;9.176;2023-04-03T09:12:24;99128.91;;;6.50;62.99
13767;BME280;47980;48.794;9.176;2023-04-03T09:15:05;99144.19;;;6.98;60.80
13767;BME280;47980;48.794;9.176;2023-04-03T09:17:49;99141.91;;;7.20;60.89
13767;BME280;47980;48.794;9.176;2023-04-03T09:20:30;99144.47;;;6.91;59.95
13767;BME280;47980;48.794;9.176;2023-04-03T09:23:14;99149.31;;;6.79;61.93
13767;BME280;47980;48.794;9.176;2023-04-03T09:25:49;99140.44;;;6.60;61.09
13767;BME280;47980;48.794;9.176;2023-04-03T09:28:26;99136.81;;;6.50;61.45
13767;BME280;47980;48.794;9.176;2023-04-03T09:30:59;99151.13;;;6.84;61.84
13767;BME280;47980;48.794;9.176;2023-04-03T09:33:31;99138.91;;;6.48;61.27
13767;BME280;47980;48.794;9.176;2023-04-03T09:36:03;99136.81;;;6.50;61.08
13767;BME280;47980;48.794;9.176;2023-04-03T09:38:35;99136.59;;;6.86;60.56
13767;BME280;47980;48.794;9.176;2023-04-03T09:41:11;99135.31;;;6.79;61.33
13767;BME280;47980;48.794;9.176;2023-04-03T09:43:54;99131.28;;;7.26;59.11
13767;BME280;47980;48.794;9.176;2023-04-03T09:46:29;99133.16;;;6.91;60.29
13767;BME280;47980;48.794;9.176;2023-04-03T09:49:03;99130.91;;;6.69;60.12
13767;BME280;47980;48.794;9.176;2023-04-03T09:51:36;99137.06;;;6.93;59.41
13767;BME280;47980;48.794;9.176;2023-04-03T09:54:32;99140.09;;;7.16;58.03
13767;BME280;47980;48.794;9.176;2023-04-03T09:57:09;99141.66;;;6.78;58.85
13767;BME280;47980;48.794;9.176;2023-04-03T09:59:56;99138.84;;;7.08;58.35
13767;BME280;47980;48.794;9.176;2023-04-03T10:02:35;99147.59;;;6.98;58.48
13767;BME280;47980;48.794;9.176;2023-04-03T10:05:27;99136.31;;;6.88;59.15
13767;BME280;47980;48.794;9.176;2023-04-03T10:08:20;99143.50;;;6.77;58.41
13767;BME280;47980;48.794;9.176;2023-04-03T10:11:12;99136.75;;;7.00;58.19
13767;BME280;47980;48.794;9.176;2023-04-03T10:13:55;99137.09;;;7.22;57.79
13767;BME280;47980;48.794;9.176;2023-04-03T10:16:36;99129.19;;;6.88;57.56
13767;BME280;47980;48.794;9.176;2023-04-03T10:19:31;99125.34;;;7.10;58.43
13767;BME280;47980;48.794;9.176;2023-04-03T10:22:13;99122.13;;;7.47;56.76
13767;BME280;47980;48.794;9.176;2023-04-03T10:24:57;99129.94;;;7.28;55.40
13767;BME280;47980;48.794;9.176;2023-04-03T10:27:42;99127.53;;;7.32;55.95
13767;BME280;47980;48.794;9.176;2023-04-03T10:30:26;99135.31;;;7.18;55.91
13767;BME280;47980;48.794;9.176;2023-04-03T10:33:17;99121.56;;;7.21;57.97
13767;BME280;47980;48.794;9.176;2023-04-03T10:36:02;99126.38;;;7.14;56.62
13767;BME280;47980;48.794;9.176;2023-04-03T10:38:43;99129.97;;;6.94;57.75
13767;BME280;47980;48.794;9.176;2023-04-03T10:41:21;99126.56;;;7.22;58.04
13767;BME280;47980;48.794;9.176;2023-04-03T10:44:05;99129.69;;;6.95;58.14
13767;BME280;47980;48.794;9.176;2023-04-03T10:46:44;99128.13;;;6.89;57.79
13767;BME280;47980;48.794;9.176;2023-04-03T10:49:28;99122.38;;;6.82;57.17
13767;BME280;47980;48.794;9.176;2023-04-03T10:52:07;99125.16;;;7.01;57.68
13767;BME280;47980;48.794;9.176;2023-04-03T10:54:51;99124.03;;;7.70;56.17
13767;BME280;47980;48.794;9.176;2023-04-03T10:57:26;99121.50;;;7.26;53.85
13767;BME280;47980;48.794;9.176;2023-04-03T11:00:01;99122.59;;;7.25;55.92
13767;BME280;47980;48.794;9.176;2023-04-03T11:02:37;99125.34;;;7.10;54.85
13767;BME280;47980;48.794;9.176;2023-04-03T11:05:21;99124.25;;;7.16;54.79
13767;BME280;47980;48.794;9.176;2023-04-03T11:08:03;99120.31;;;7.13;54.85
13767;BME280;47980;48.794;9.176;2023-04-03T11:10:39;99116.13;;;7.41;54.44
13767;BME280;47980;48.794;9.176;2023-04-03T11:13:15;99122.91;;;7.47;54.50
13767;BME280;47980;48.794;9.176;2023-04-03T11:15:48;99118.00;;;7.65;52.91
13767;BME280;47980;48.794;9.176;2023-04-03T11:18:24;99121.66;;;7.40;52.45
13767;BME280;47980;48.794;9.176;2023-04-03T11:21:02;99114.97;;;7.18;52.25
13767;BME280;47980;48.794;9.176;2023-04-03T11:23:36;99114.53;;;7.40;52.64
13767;BME280;47980;48.794;9.176;2023-04-03T11:26:11;99103.47;;;7.09;51.22
13767;BME280;47980;48.794;9.176;2023-04-03T11:28:43;99108.84;;;7.28;51.78
13767;BME280;47980;48.794;9.176;2023-04-03T11:31:33;99106.66;;;7.35;53.39
13767;BME280;47980;48.794;9.176;2023-04-03T11:34:18;99109.59;;;7.34;53.02
13767;BME280;47980;48.794;9.176;2023-04-03T11:36:56;99107.50;;;7.31;52.45
13767;BME280;47980;48.794;9.176;2023-04-03T11:39:32;99107.22;;;7.61;52.28
13767;BME280;47980;48.794;9.176;2023-04-03T11:42:15;99106.97;;;7.34;53.34
13767;BME280;47980;48.794;9.176;2023-04-03T11:44:48;99105.91;;;7.59;53.13
13767;BME280;47980;48.794;9.176;2023-04-03T11:47:44;99092.25;;;7.81;51.69
13767;BME280;47980;48.794;9.176;2023-04-03T11:50:37;99096.84;;;8.13;52.82
13767;BME280;47980;48.794;9.176;2023-04-03T11:53:33;99091.56;;;7.70;52.12
13767;BME280;47980;48.794;9.176;2023-04-03T11:56:27;99092.03;;;7.48;53.38
13767;BME280;47980;48.794;9.176;2023-04-03T11:59:16;99093.16;;;7.66;51.05
13767;BME280;47980;48.794;9.176;2023-04-03T12:01:53;99087.44;;;7.59;52.69
13767;BME280;47980;48.794;9.176;2023-04-03T12:04:26;99078.63;;;7.68;52.10
13767;BME280;47980;48.794;9.176;2023-04-03T12:07:15;99081.50;;;7.96;51.94
13767;BME280;47980;48.794;9.176;2023-04-03T12:09:58;99076.53;;;7.65;51.87
13767;BME280;47980;48.794;9.176;2023-04-03T12:12:37;99080.75;;;7.90;52.66
13767;BME280;47980;48.794;9.176;2023-04-03T12:15:24;99084.53;;;7.31;53.58
13767;BME280;47980;48.794;9.176;2023-04-03T12:17:56;99086.16;;;7.27;52.52
13767;BME280;47980;48.794;9.176;2023-04-03T12:20:53;99080.66;;;7.53;52.40
13767;BME280;47980;48.794;9.176;2023-04-03T12:23:27;99080.44;;;7.44;52.23
13767;BME280;47980;48.794;9.176;2023-04-03T12:28:53;99066.97;;;7.93;51.37
13767;BME280;47980;48.794;9.176;2023-04-03T12:31:36;99078.66;;;8.30;50.62
13767;BME280;47980;48.794;9.176;2023-04-03T12:34:18;99061.19;;;7.91;50.49
13767;BME280;47980;48.794;9.176;2023-04-03T12:37:00;99067.66;;;7.80;50.64
13767;BME280;47980;48.794;9.176;2023-04-03T12:39:48;99064.13;;;7.66;51.77
13767;BME280;47980;48.794;9.176;2023-04-03T12:42:32;99057.56;;;7.63;51.76
13767;BME280;47980;48.794;9.176;2023-04-03T12:45:15;99057.97;;;7.52;50.66
13767;BME280;47980;48.794;9.176;2023-04-03T12:47:51;99064.19;;;7.61;50.25
13767;BME280;47980;48.794;9.176;2023-04-03T12:50:24;99062.38;;;7.80;50.14
13767;BME280;47980;48.794;9.176;2023-04-03T12:53:02;99064.19;;;7.85;49.30
13767;BME280;47980;48.794;9.176;2023-04-03T12:55:35;99069.41;;;7.90;50.62
13767;BME280;47980;48.794;9.176;2023-04-03T12:58:16;99066.34;;;8.02;50.99
13767;BME280;47980;48.794;9.176;2023-04-03T13:00:59;99070.81;;;7.58;50.17
13767;BME280;47980;48.794;9.176;2023-04-03T13:03:31;99066.50;;;7.67;51.29
13767;BME280;47980;48.794;9.176;2023-04-03T13:06:03;99064.63;;;7.92;50.98
13767;BME280;47980;48.794;9.176;2023-04-03T13:08:35;99058.19;;;7.98;50.38
13767;BME280;47980;48.794;9.176;2023-04-03T13:11:10;99056.22;;;8.28;49.54
13767;BME280;47980;48.794;9.176;2023-04-03T13:13:55;99066.25;;;8.31;49.12
13767;BME280;47980;48.794;9.176;2023-04-03T13:16:27;99066.66;;;8.43;48.83
13767;BME280;47980;48.794;9.176;2023-04-03T13:18:59;99054.53;;;8.37;48.93
13767;BME280;47980;48.794;9.176;2023-04-03T13:21:32;99049.13;;;7.85;49.14
13767;BME280;47980;48.794;9.176;2023-04-03T13:24:05;99063.13;;;8.29;49.35
13767;BME280;47980;48.794;9.176;2023-04-03T13:26:37;99052.22;;;8.11;48.87
13767;BME280;47980;48.794;9.176;2023-04-03T13:29:21;99057.09;;;7.56;48.46
13767;BME280;47980;48.794;9.176;2023-04-03T13:31:54;99045.81;;;8.17;49.08
13767;BME280;47980;48.794;9.176;2023-04-03T13:34:28;99046.06;;;7.97;49.03
13767;BME280;47980;48.794;9.176;2023-04-03T13:37:02;99040.78;;;7.97;48.28
13767;BME280;47980;48.794;9.176;2023-04-03T13:39:35;99033.72;;;8.11;47.89
13767;BME280;47980;48.794;9.176;2023-04-03T13:42:20;99035.97;;;8.42;47.20
13767;BME280;47980;48.794;9.176;2023-04-03T13:48:15;99041.97;;;8.48;47.69
13767;BME280;47980;48.794;9.176;2023-04-03T13:50:53;99040.91;;;8.49;45.87
13767;BME280;47980;48.794;9.176;2023-04-03T13:53:26;99038.66;;;9.07;45.88
13767;BME280;47980;48.794;9.176;2023-04-03T13:56:04;99034.16;;;9.08;44.82
13767;BME280;47980;48.794;9.176;2023-04-03T13:58:36;99041.56;;;9.38;44.32
13767;BME280;47980;48.794;9.176;2023-04-03T14:01:18;99036.31;;;8.73;44.31